sensor_id;sensor_type;location;lat;lon;timestamp;temperature;humidity
50606;DHT22;36557;53.572;10.170;2023-07-22T06:32:47;16.50;99.90
50606;DHT22;36557;53.572;10.170;2023-07-22T06:35:13;16.50;99.90
50606;DHT22;36557;53.572;10.170;2023-07-22T06:37:39;16.50;99.90
50606;DHT22;36557;53.572;10.170;2023-07-22T06:40:06;16.10;99.90
50606;DHT22;36557;53.572;10.170;2023-07-22T06:42:32;16.30;99.90
50606;DHT22;36557;53.572;10.170;2023-07-22T06:44:58;16.30;99.90
50606;DHT22;36557;53.572;10.170;2023-07-22T06:47:24;16.40;99.90
50606;DHT22;36557;53.572;10.170;2023-07-22T06:49:50;16.60;99.90
50606;DHT22;36557;53.572;10.170;2023-07-22T06:52:16;16.40;99.90
50606;DHT22;36557;53.572;10.170;2023-07-22T06:54:42;16.60;99.90
50606;DHT22;36557;53.572;10.170;2023-07-22T06:57:08;16.40;99.90
50606;DHT22;36557;53.572;10.170;2023-07-22T06:59:34;16.70;99.90
50606;DHT22;36557;53.572;10.170;2023-07-22T07:01:59;16.80;99.90
50606;DHT22;36557;53.572;10.170;2023-07-22T07:04:26;16.80;99.90
50606;DHT22;36557;53.572;10.170;2023-07-22T07:06:52;16.90;99.90
50606;DHT22;36557;53.572;10.170;2023-07-22T07:09:17;17.00;99.90
50606;DHT22;36557;53.572;10.170;2023-07-22T07:11:44;17.40;99.90
50606;DHT22;36557;53.572;10.170;2023-07-22T07:14:10;17.50;99.90
50606;DHT22;36557;53.572;10.170;2023-07-22T07:16:35;17.30;99.90
50606;DHT22;36557;53.572;10.170;2023-07-22T07:19:01;17.50;99.90
50606;DHT22;36557;53.572;10.170;2023-07-22T07:21:27;17.80;99.90
50606;DHT22;36557;53.572;10.170;2023-07-22T07:23:54;17.90;99.90
50606;DHT22;36557;53.572;10.170;2023-07-22T07:26:21;17.70;99.90
50606;DHT22;36557;53.572;10.170;2023-07-22T07:28:47;17.90;99.90
50606;DHT22;36557;53.572;10.170;2023-07-22T07:31:13;17.60;99.90
50606;DHT22;36557;53.572;10.170;2023-07-22T07:33:39;18.00;99.90
50606;DHT22;36557;53.572;10.170;2023-07-22T07:36:05;18.20;99.90
50606;DHT22;36557;53.572;10.170;2023-07-22T07:38:31;18.20;99.90
50606;DHT22;36557;53.572;10.170;2023-07-22T07:40:59;18.20;99.90
50606;DHT22;36557;53.572;10.170;2023-07-22T07:43:25;18.40;99.90
50606;DHT22;36557;53.572;10.170;2023-07-22T07:48:57;18.20;99.90
50606;DHT22;36557;53.572;10.170;2023-07-22T07:51:25;18.10;99.90
50606;DHT22;36557;53.572;10.170;2023-07-22T07:53:53;18.10;99.90
50606;DHT22;36557;53.572;10.170;2023-07-22T07:56:19;17.90;99.90
50606;DHT22;36557;53.572;10.170;2023-07-22T07:58:47;17.90;99.90
50606;DHT22;36557;53.572;10.170;2023-07-22T08:01:12;18.10;99.90
50606;DHT22;36557;53.572;10.170;2023-07-22T08:03:40;18.00;99.90
50606;DHT22;36557;53.572;10.170;2023-07-22T08:06:07;18.10;99.90
50606;DHT22;36557;53.572;10.170;2023-07-22T08:08:33;18.10;99.90
50606;DHT22;36557;53.572;10.170;2023-07-22T08:11:10;18.30;99.90
50606;DHT22;36557;53.572;10.170;2023-07-22T08:13:37;18.20;99.90
50606;DHT22;36557;53.572;10.170;2023-07-22T08:16:08;17.90;99.90
50606;DHT22;36557;53.572;10.170;2023-07-22T08:18:34;18.00;99.90
50606;DHT22;36557;53.572;10.170;2023-07-22T08:21:00;18.40;99.90
50606;DHT22;36557;53.572;10.170;2023-07-22T08:23:28;18.80;99.90
50606;DHT22;36557;53.572;10.170;2023-07-22T08:25:53;19.00;99.90
50606;DHT22;36557;53.572;10.170;2023-07-22T08:28:19;19.00;99.90
50606;DHT22;36557;53.572;10.170;2023-07-22T08:30:45;19.20;99.90
50606;DHT22;36557;53.572;10.170;2023-07-22T08:33:11;19.70;99.90
50606;DHT22;36557;53.572;10.170;2023-07-22T08:35:38;19.50;99.90
50606;DHT22;36557;53.572;10.170;2023-07-22T08:38:05;19.80;99.90
50606;DHT22;36557;53.572;10.170;2023-07-22T08:40:38;19.40;99.90
50606;DHT22;36557;53.572;10.170;2023-07-22T08:43:05;19.60;99.90
50606;DHT22;36557;53.572;10.170;2023-07-22T08:45:33;20.00;99.90
50606;DHT22;36557;53.572;10.170;2023-07-22T08:48:09;19.50;99.90
50606;DHT22;36557;53.572;10.170;2023-07-22T08:50:53;19.60;99.90
50606;DHT22;36557;53.572;10.170;2023-07-22T08:53:20;19.80;99.90
50606;DHT22;36557;53.572;10.170;2023-07-22T08:55:46;19.70;99.90
50606;DHT22;36557;53.572;10.170;2023-07-22T08:58:13;19.70;99.90
50606;DHT22;36557;53.572;10.170;2023-07-22T09:00:39;19.80;99.90
50606;DHT22;36557;53.572;10.170;2023-07-22T09:03:06;20.80;99.90
50606;DHT22;36557;53.572;10.170;2023-07-22T09:05:34;20.80;98.60
50606;DHT22;36557;53.572;10.170;2023-07-22T09:08:02;20.20;98.40
50606;DHT22;36557;53.572;10.170;2023-07-22T09:10:28;20.50;99.10
50606;DHT22;36557;53.572;10.170;2023-07-22T09:12:54;20.70;98.20
50606;DHT22;36557;53.572;10.170;2023-07-22T09:15:21;20.50;99.00
50606;DHT22;36557;53.572;10.170;2023-07-22T09:17:49;20.40;97.00
50606;DHT22;36557;53.572;10.170;2023-07-22T09:20:15;20.70;98.00
50606;DHT22;36557;53.572;10.170;2023-07-22T09:22:49;21.30;96.50
50606;DHT22;36557;53.572;10.170;2023-07-22T09:25:23;21.60;96.20
50606;DHT22;36557;53.572;10.170;2023-07-22T09:27:51;21.00;94.00
50606;DHT22;36557;53.572;10.170;2023-07-22T09:32:57;21.30;94.70
50606;DHT22;36557;53.572;10.170;2023-07-22T09:35:27;21.00;94.30
50606;DHT22;36557;53.572;10.170;2023-07-22T09:37:54;20.90;94.60
50606;DHT22;36557;53.572;10.170;2023-07-22T09:40:22;21.00;94.60
50606;DHT22;36557;53.572;10.170;2023-07-22T09:42:50;20.90;94.90
50606;DHT22;36557;53.572;10.170;2023-07-22T09:45:17;20.70;95.40
50606;DHT22;36557;53.572;10.170;2023-07-22T09:47:47;20.50;96.10
50606;DHT22;36557;53.572;10.170;2023-07-22T09:50:17;20.40;95.00
50606;DHT22;36557;53.572;10.170;2023-07-22T09:52:49;20.60;97.30
50606;DHT22;36557;53.572;10.170;2023-07-22T09:55:17;21.20;97.00
50606;DHT22;36557;53.572;10.170;2023-07-22T09:57:55;20.90;94.60
50606;DHT22;36557;53.572;10.170;2023-07-22T10:00:24;21.80;95.80
50606;DHT22;36557;53.572;10.170;2023-07-22T10:02:51;21.30;93.30
50606;DHT22;36557;53.572;10.170;2023-07-22T10:05:19;20.90;93.30
50606;DHT22;36557;53.572;10.170;2023-07-22T10:07:49;20.60;93.50
50606;DHT22;36557;53.572;10.170;2023-07-22T10:10:18;20.40;94.70
50606;DHT22;36557;53.572;10.170;2023-07-22T10:12:45;20.80;94.90
50606;DHT22;36557;53.572;10.170;2023-07-22T10:15:15;21.30;93.90
50606;DHT22;36557;53.572;10.170;2023-07-22T10:17:43;21.50;93.50
50606;DHT22;36557;53.572;10.170;2023-07-22T10:20:10;21.30;94.20
50606;DHT22;36557;53.572;10.170;2023-07-22T10:22:42;21.90;93.50
50606;DHT22;36557;53.572;10.170;2023-07-22T10:25:11;22.30;92.10
50606;DHT22;36557;53.572;10.170;2023-07-22T10:27:37;21.90;92.60
50606;DHT22;36557;53.572;10.170;2023-07-22T10:30:06;22.20;93.00
50606;DHT22;36557;53.572;10.170;2023-07-22T10:32:37;21.90;91.80
50606;DHT22;36557;53.572;10.170;2023-07-22T10:35:04;21.30;92.80
50606;DHT22;36557;53.572;10.170;2023-07-22T10:37:31;21.20;93.40
50606;DHT22;36557;53.572;10.170;2023-07-22T10:40:18;21.30;93.40
50606;DHT22;36557;53.572;10.170;2023-07-22T10:42:52;21.80;92.40
50606;DHT22;36557;53.572;10.170;2023-07-22T10:45:30;22.20;91.60
50606;DHT22;36557;53.572;10.170;2023-07-22T10:48:02;22.20;90.60
50606;DHT22;36557;53.572;10.170;2023-07-22T10:50:47;22.10;90.90
50606;DHT22;36557;53.572;10.170;2023-07-22T10:53:19;22.60;90.10
50606;DHT22;36557;53.572;10.170;2023-07-22T11:06:33;22.30;92.10
50606;DHT22;36557;53.572;10.170;2023-07-22T11:08:59;21.90;91.20
50606;DHT22;36557;53.572;10.170;2023-07-22T11:11:44;21.50;90.90
50606;DHT22;36557;53.572;10.170;2023-07-22T11:14:18;22.00;91.50
50606;DHT22;36557;53.572;10.170;2023-07-22T11:16:47;22.60;90.30
50606;DHT22;36557;53.572;10.170;2023-07-22T11:19:17;22.20;90.30
50606;DHT22;36557;53.572;10.170;2023-07-22T11:21:44;22.20;91.80
50606;DHT22;36557;53.572;10.170;2023-07-22T11:24:10;21.70;90.30
50606;DHT22;36557;53.572;10.170;2023-07-22T11:26:35;22.40;90.50
50606;DHT22;36557;53.572;10.170;2023-07-22T11:29:03;22.60;90.80
50606;DHT22;36557;53.572;10.170;2023-07-22T11:33:58;22.50;88.40
50606;DHT22;36557;53.572;10.170;2023-07-22T11:36:27;22.40;88.10
50606;DHT22;36557;53.572;10.170;2023-07-22T11:38:54;22.20;88.70
50606;DHT22;36557;53.572;10.170;2023-07-22T11:41:25;21.80;89.00
50606;DHT22;36557;53.572;10.170;2023-07-22T11:43:51;21.90;90.40
50606;DHT22;36557;53.572;10.170;2023-07-22T11:46:16;22.00;91.30
50606;DHT22;36557;53.572;10.170;2023-07-22T11:48:49;21.90;90.40
50606;DHT22;36557;53.572;10.170;2023-07-22T11:51:18;22.50;90.90
50606;DHT22;36557;53.572;10.170;2023-07-22T11:53:49;23.10;90.40
50606;DHT22;36557;53.572;10.170;2023-07-22T11:56:35;23.10;89.90
50606;DHT22;36557;53.572;10.170;2023-07-22T11:59:01;22.70;88.90
50606;DHT22;36557;53.572;10.170;2023-07-22T12:01:32;22.40;90.00
50606;DHT22;36557;53.572;10.170;2023-07-22T12:03:58;22.00;88.50
50606;DHT22;36557;53.572;10.170;2023-07-22T12:06:27;21.70;89.80
50606;DHT22;36557;53.572;10.170;2023-07-22T12:08:53;22.00;91.30
50606;DHT22;36557;53.572;10.170;2023-07-22T12:11:21;22.40;91.40
50606;DHT22;36557;53.572;10.170;2023-07-22T12:13:46;22.10;91.20
50606;DHT22;36557;53.572;10.170;2023-07-22T12:16:23;22.70;91.10
50606;DHT22;36557;53.572;10.170;2023-07-22T12:18:49;22.50;90.00
50606;DHT22;36557;53.572;10.170;2023-07-22T12:21:15;22.60;90.10
50606;DHT22;36557;53.572;10.170;2023-07-22T12:23:42;22.70;90.30
50606;DHT22;36557;53.572;10.170;2023-07-22T12:26:08;22.40;90.50
50606;DHT22;36557;53.572;10.170;2023-07-22T12:28:34;22.80;91.30
50606;DHT22;36557;53.572;10.170;2023-07-22T12:31:00;22.60;90.60
50606;DHT22;36557;53.572;10.170;2023-07-22T12:33:26;22.50;91.10
50606;DHT22;36557;53.572;10.170;2023-07-22T12:35:56;22.50;91.60
50606;DHT22;36557;53.572;10.170;2023-07-22T12:38:22;22.40;91.00
50606;DHT22;36557;53.572;10.170;2023-07-22T12:40:48;22.90;91.80
50606;DHT22;36557;53.572;10.170;2023-07-22T12:43:14;23.40;91.20
50606;DHT22;36557;53.572;10.170;2023-07-22T12:45:40;23.00;90.00
50606;DHT22;36557;53.572;10.170;2023-07-22T12:48:06;22.30;88.10
50606;DHT22;36557;53.572;10.170;2023-07-22T12:50:32;22.50;91.90
50606;DHT22;36557;53.572;10.170;2023-07-22T12:52:58;22.00;92.70
50606;DHT22;36557;53.572;10.170;2023-07-22T12:55:24;22.10;91.70
50606;DHT22;36557;53.572;10.170;2023-07-22T12:57:50;21.60;92.90
50606;DHT22;36557;53.572;10.170;2023-07-22T13:00:16;21.00;93.30
50606;DHT22;36557;53.572;10.170;2023-07-22T13:02:42;20.50;94.60
50606;DHT22;36557;53.572;10.170;2023-07-22T13:05:08;20.50;95.30
50606;DHT22;36557;53.572;10.170;2023-07-22T13:07:35;20.40;96.80
50606;DHT22;36557;53.572;10.170;2023-07-22T13:10:01;20.10;96.60
50606;DHT22;36557;53.572;10.170;2023-07-22T13:12:30;19.90;96.00
50606;DHT22;36557;53.572;10.170;2023-07-22T13:14:56;19.80;96.10
50606;DHT22;36557;53.572;10.170;2023-07-22T13:17:21;19.80;96.50
50606;DHT22;36557;53.572;10.170;2023-07-22T13:19:47;19.90;96.30
50606;DHT22;36557;53.572;10.170;2023-07-22T13:22:13;20.00;96.70
50606;DHT22;36557;53.572;10.170;2023-07-22T13:24:38;20.10;96.70
50606;DHT22;36557;53.572;10.170;2023-07-22T13:27:04;20.10;97.30
50606;DHT22;36557;53.572;10.170;2023-07-22T13:29:30;20.10;98.80
50606;DHT22;36557;53.572;10.170;2023-07-22T13:31:56;20.10;99.10
50606;DHT22;36557;53.572;10.170;2023-07-22T13:34:22;20.10;98.80
50606;DHT22;36557;53.572;10.170;2023-07-22T13:36:48;20.10;99.20
50606;DHT22;36557;53.572;10.170;2023-07-22T13:39:13;20.30;99.70
50606;DHT22;36557;53.572;10.170;2023-07-22T13:41:39;20.20;99.20
50606;DHT22;36557;53.572;10.170;2023-07-22T13:44:05;19.80;99.90
50606;DHT22;36557;53.572;10.170;2023-07-22T13:46:31;19.70;99.90
50606;DHT22;36557;53.572;10.170;2023-07-22T13:48:57;19.30;99.90
50606;DHT22;36557;53.572;10.170;2023-07-22T13:51:23;19.20;99.90
50606;DHT22;36557;53.572;10.170;2023-07-22T13:53:48;18.70;99.90
50606;DHT22;36557;53.572;10.170;2023-07-22T13:56:14;18.10;99.90
50606;DHT22;36557;53.572;10.170;2023-07-22T13:58:40;18.00;99.90
50606;DHT22;36557;53.572;10.170;2023-07-22T14:01:06;17.60;99.90
50606;DHT22;36557;53.572;10.170;2023-07-22T14:03:31;17.70;99.90
50606;DHT22;36557;53.572;10.170;2023-07-22T14:05:57;17.80;99.90
50606;DHT22;36557;53.572;10.170;2023-07-22T14:08:23;18.30;99.90
50606;DHT22;36557;53.572;10.170;2023-07-22T14:10:49;18.40;99.90
50606;DHT22;36557;53.572;10.170;2023-07-22T14:13:14;18.60;99.90
50606;DHT22;36557;53.572;10.170;2023-07-22T14:15:41;18.90;99.90
50606;DHT22;36557;53.572;10.170;2023-07-22T14:18:07;18.40;99.90
50606;DHT22;36557;53.572;10.170;2023-07-22T14:20:33;18.50;99.90
50606;DHT22;36557;53.572;10.170;2023-07-22T14:22:59;18.90;99.90
50606;DHT22;36557;53.572;10.170;2023-07-22T14:25:24;19.10;99.90
50606;DHT22;36557;53.572;10.170;2023-07-22T14:27:50;19.40;99.90
50606;DHT22;36557;53.572;10.170;2023-07-22T14:30:16;19.80;99.90
50606;DHT22;36557;53.572;10.170;2023-07-22T14:32:42;19.80;99.90
50606;DHT22;36557;53.572;10.170;2023-07-22T14:35:08;19.30;99.90
50606;DHT22;36557;53.572;10.170;2023-07-22T14:37:35;20.00;99.90
50606;DHT22;36557;53.572;10.170;2023-07-22T14:40:01;20.10;99.90
50606;DHT22;36557;53.572;10.170;2023-07-22T14:42:26;19.70;99.90
50606;DHT22;36557;53.572;10.170;2023-07-22T14:44:52;19.80;99.90
50606;DHT22;36557;53.572;10.170;2023-07-22T14:47:17;20.00;99.90
50606;DHT22;36557;53.572;10.170;2023-07-22T14:49:43;20.30;99.90
50606;DHT22;36557;53.572;10.170;2023-07-22T14:52:09;20.00;99.90
50606;DHT22;36557;53.572;10.170;2023-07-22T14:54:34;19.80;99.90
50606;DHT22;36557;53.572;10.170;2023-07-22T14:57:00;19.70;99.90
50606;DHT22;36557;53.572;10.170;2023-07-22T14:59:26;19.40;99.90
50606;DHT22;36557;53.572;10.170;2023-07-22T15:01:52;19.00;99.90
50606;DHT22;36557;53.572;10.170;2023-07-22T15:04:18;19.40;99.90
50606;DHT22;36557;53.572;10.170;2023-07-22T15:06:44;19.30;99.90
50606;DHT22;36557;53.572;10.170;2023-07-22T15:09:09;19.30;99.90
50606;DHT22;36557;53.572;10.170;2023-07-22T15:11:36;19.40;99.90
50606;DHT22;36557;53.572;10.170;2023-07-22T15:14:05;19.40;99.90
50606;DHT22;36557;53.572;10.170;2023-07-22T15:16:31;19.50;99.90
50606;DHT22;36557;53.572;10.170;2023-07-22T15:18:57;19.60;99.90
50606;DHT22;36557;53.572;10.170;2023-07-22T15:21:23;19.50;99.90
50606;DHT22;36557;53.572;10.170;2023-07-22T15:23:49;19.50;99.90
50606;DHT22;36557;53.572;10.170;2023-07-22T15:26:15;19.80;99.90
50606;DHT22;36557;53.572;10.170;2023-07-22T15:28:40;19.60;99.90
50606;DHT22;36557;53.572;10.170;2023-07-22T15:31:07;19.70;99.90
50606;DHT22;36557;53.572;10.170;2023-07-22T15:33:34;19.60;99.90
50606;DHT22;36557;53.572;10.170;2023-07-22T15:36:00;19.40;99.90
50606;DHT22;36557;53.572;10.170;2023-07-22T15:38:25;19.20;99.90
50606;DHT22;36557;53.572;10.170;2023-07-22T15:40:53;19.20;99.90
50606;DHT22;36557;53.572;10.170;2023-07-22T15:43:19;19.20;99.90
50606;DHT22;36557;53.572;10.170;2023-07-22T15:45:45;19.10;99.90
50606;DHT22;36557;53.572;10.170;2023-07-22T15:48:10;19.20;99.90
50606;DHT22;36557;53.572;10.170;2023-07-22T15:50:36;19.00;99.90
50606;DHT22;36557;53.572;10.170;2023-07-22T15:53:02;18.80;99.90
50606;DHT22;36557;53.572;10.170;2023-07-22T15:55:28;18.70;99.90
50606;DHT22;36557;53.572;10.170;2023-07-22T15:57:53;18.70;99.90
50606;DHT22;36557;53.572;10.170;2023-07-22T16:00:19;18.60;99.90
50606;DHT22;36557;53.572;10.170;2023-07-22T16:02:45;18.70;99.90
50606;DHT22;36557;53.572;10.170;2023-07-22T16:05:11;18.60;99.90
50606;DHT22;36557;53.572;10.170;2023-07-22T16:07:37;18.50;99.90
50606;DHT22;36557;53.572;10.170;2023-07-22T16:10:03;18.70;99.90
50606;DHT22;36557;53.572;10.170;2023-07-22T16:12:29;18.80;99.90
50606;DHT22;36557;53.572;10.170;2023-07-22T16:14:55;18.80;99.90
50606;DHT22;36557;53.572;10.170;2023-07-22T16:17:21;18.60;99.90
50606;DHT22;36557;53.572;10.170;2023-07-22T16:19:47;18.40;99.90
50606;DHT22;36557;53.572;10.170;2023-07-22T16:22:13;18.30;99.90
50606;DHT22;36557;53.572;10.170;2023-07-22T16:24:39;18.20;99.90
50606;DHT22;36557;53.572;10.170;2023-07-22T16:27:04;18.20;99.90
50606;DHT22;36557;53.572;10.170;2023-07-22T16:29:30;18.20;99.90
50606;DHT22;36557;53.572;10.170;2023-07-22T16:31:56;18.10;99.90
50606;DHT22;36557;53.572;10.170;2023-07-22T16:34:21;18.30;99.90
50606;DHT22;36557;53.572;10.170;2023-07-22T16:36:48;18.30;99.90
50606;DHT22;36557;53.572;10.170;2023-07-22T16:39:14;18.30;99.90
50606;DHT22;36557;53.572;10.170;2023-07-22T16:41:40;18.20;99.90
50606;DHT22;36557;53.572;10.170;2023-07-22T16:44:05;18.20;99.90
50606;DHT22;36557;53.572;10.170;2023-07-22T16:46:31;18.20;99.90
50606;DHT22;36557;53.572;10.170;2023-07-22T16:48:59;18.30;99.90
50606;DHT22;36557;53.572;10.170;2023-07-22T16:51:25;18.20;99.90
50606;DHT22;36557;53.572;10.170;2023-07-22T16:53:51;18.30;99.90
50606;DHT22;36557;53.572;10.170;2023-07-22T16:56:17;18.20;99.90
50606;DHT22;36557;53.572;10.170;2023-07-22T16:58:43;18.10;99.90
50606;DHT22;36557;53.572;10.170;2023-07-22T17:01:08;18.10;99.90
50606;DHT22;36557;53.572;10.170;2023-07-22T17:03:34;18.10;99.90
50606;DHT22;36557;53.572;10.170;2023-07-22T17:06:01;17.90;99.90
50606;DHT22;36557;53.572;10.170;2023-07-22T17:08:26;17.90;99.90
50606;DHT22;36557;53.572;10.170;2023-07-22T17:10:52;18.00;99.90
50606;DHT22;36557;53.572;10.170;2023-07-22T17:13:18;17.90;99.90
50606;DHT22;36557;53.572;10.170;2023-07-22T17:15:44;17.90;99.90
50606;DHT22;36557;53.572;10.170;2023-07-22T17:18:10;17.80;99.90
50606;DHT22;36557;53.572;10.170;2023-07-22T17:20:36;17.80;99.90
50606;DHT22;36557;53.572;10.170;2023-07-22T17:23:02;17.70;99.90
50606;DHT22;36557;53.572;10.170;2023-07-22T17:25:27;17.70;99.90
50606;DHT22;36557;53.572;10.170;2023-07-22T17:27:53;17.70;99.90
50606;DHT22;36557;53.572;10.170;2023-07-22T17:30:19;17.60;99.90
50606;DHT22;36557;53.572;10.170;2023-07-22T17:32:45;17.60;99.90
50606;DHT22;36557;53.572;10.170;2023-07-22T17:35:15;17.60;99.90
50606;DHT22;36557;53.572;10.170;2023-07-22T17:37:40;17.60;99.90
50606;DHT22;36557;53.572;10.170;2023-07-22T17:40:06;17.60;99.90
50606;DHT22;36557;53.572;10.170;2023-07-22T17:42:33;17.50;99.90
50606;DHT22;36557;53.572;10.170;2023-07-22T17:45:00;17.50;99.90
50606;DHT22;36557;53.572;10.170;2023-07-22T17:47:25;17.30;99.90
50606;DHT22;36557;53.572;10.170;2023-07-22T17:49:51;17.20;99.90
50606;DHT22;36557;53.572;10.170;2023-07-22T17:52:17;17.20;99.90
50606;DHT22;36557;53.572;10.170;2023-07-22T17:54:44;17.20;99.90
50606;DHT22;36557;53.572;10.170;2023-07-22T17:57:11;17.00;99.90
50606;DHT22;36557;53.572;10.170;2023-07-22T17:59:36;17.00;99.90
50606;DHT22;36557;53.572;10.170;2023-07-22T18:02:02;16.90;99.90
50606;DHT22;36557;53.572;10.170;2023-07-22T18:04:31;16.90;99.90
50606;DHT22;36557;53.572;10.170;2023-07-22T18:06:57;16.90;99.90
50606;DHT22;36557;53.572;10.170;2023-07-22T18:09:22;16.90;99.90
50606;DHT22;36557;53.572;10.170;2023-07-22T18:11:48;16.90;99.90
50606;DHT22;36557;53.572;10.170;2023-07-22T18:14:14;16.90;99.90
50606;DHT22;36557;53.572;10.170;2023-07-22T18:16:39;16.80;99.90
50606;DHT22;36557;53.572;10.170;2023-07-22T18:19:05;16.80;99.90
50606;DHT22;36557;53.572;10.170;2023-07-22T18:21:32;16.80;99.90
50606;DHT22;36557;53.572;10.170;2023-07-22T18:23:58;16.80;99.90
50606;DHT22;36557;53.572;10.170;2023-07-22T18:26:24;16.70;99.90
50606;DHT22;36557;53.572;10.170;2023-07-22T18:28:50;16.80;99.90
50606;DHT22;36557;53.572;10.170;2023-07-22T18:31:15;16.80;99.90
50606;DHT22;36557;53.572;10.170;2023-07-22T18:33:41;16.70;99.90
50606;DHT22;36557;53.572;10.170;2023-07-22T18:36:07;16.60;99.90
50606;DHT22;36557;53.572;10.170;2023-07-22T18:38:33;16.40;99.90
50606;DHT22;36557;53.572;10.170;2023-07-22T18:41:00;16.50;99.90
50606;DHT22;36557;53.572;10.170;2023-07-22T18:43:26;16.50;99.90
50606;DHT22;36557;53.572;10.170;2023-07-22T18:45:52;16.50;99.90
50606;DHT22;36557;53.572;10.170;2023-07-22T18:48:17;16.40;99.90
50606;DHT22;36557;53.572;10.170;2023-07-22T18:50:43;16.40;99.90
50606;DHT22;36557;53.572;10.170;2023-07-22T18:53:09;16.50;99.90
50606;DHT22;36557;53.572;10.170;2023-07-22T18:55:35;16.50;99.90
50606;DHT22;36557;53.572;10.170;2023-07-22T18:58:01;16.40;99.90
50606;DHT22;36557;53.572;10.170;2023-07-22T19:00:27;16.40;99.90
50606;DHT22;36557;53.572;10.170;2023-07-22T19:02:54;16.40;99.90
50606;DHT22;36557;53.572;10.170;2023-07-22T19:05:20;16.40;99.90
50606;DHT22;36557;53.572;10.170;2023-07-22T19:07:45;16.40;99.90
50606;DHT22;36557;53.572;10.170;2023-07-22T19:10:11;16.40;99.90
50606;DHT22;36557;53.572;10.170;2023-07-22T19:12:37;16.40;99.90
50606;DHT22;36557;53.572;10.170;2023-07-22T19:15:03;16.30;99.90
50606;DHT22;36557;53.572;10.170;2023-07-22T19:17:29;16.30;99.90
50606;DHT22;36557;53.572;10.170;2023-07-22T19:19:54;16.20;99.90
50606;DHT22;36557;53.572;10.170;2023-07-22T19:22:20;16.10;99.90
50606;DHT22;36557;53.572;10.170;2023-07-22T19:24:46;16.00;99.90
50606;DHT22;36557;53.572;10.170;2023-07-22T19:27:14;16.00;99.90
50606;DHT22;36557;53.572;10.170;2023-07-22T19:29:44;16.00;99.90
50606;DHT22;36557;53.572;10.170;2023-07-22T19:32:10;15.90;99.90
50606;DHT22;36557;53.572;10.170;2023-07-22T19:34:36;16.00;99.90
50606;DHT22;36557;53.572;10.170;2023-07-22T19:37:01;15.90;99.90
50606;DHT22;36557;53.572;10.170;2023-07-22T19:39:27;15.90;99.90
50606;DHT22;36557;53.572;10.170;2023-07-22T19:41:53;16.00;99.90
50606;DHT22;36557;53.572;10.170;2023-07-22T19:44:19;15.90;99.90
50606;DHT22;36557;53.572;10.170;2023-07-22T19:54:02;15.70;99.90
50606;DHT22;36557;53.572;10.170;2023-07-22T19:56:28;15.70;99.90
50606;DHT22;36557;53.572;10.170;2023-07-22T19:58:54;15.70;99.90
50606;DHT22;36557;53.572;10.170;2023-07-22T20:01:20;15.60;99.90
50606;DHT22;36557;53.572;10.170;2023-07-22T20:03:45;15.60;99.90
50606;DHT22;36557;53.572;10.170;2023-07-22T20:06:11;15.60;99.90
50606;DHT22;36557;53.572;10.170;2023-07-22T20:08:38;15.60;99.90
50606;DHT22;36557;53.572;10.170;2023-07-22T20:11:04;15.70;99.90
50606;DHT22;36557;53.572;10.170;2023-07-22T20:13:32;15.70;99.90
50606;DHT22;36557;53.572;10.170;2023-07-22T20:15:58;15.60;99.90
50606;DHT22;36557;53.572;10.170;2023-07-22T20:18:23;15.60;99.90
50606;DHT22;36557;53.572;10.170;2023-07-22T20:20:49;15.70;99.90
50606;DHT22;36557;53.572;10.170;2023-07-22T20:23:15;15.60;99.90
50606;DHT22;36557;53.572;10.170;2023-07-22T20:25:41;15.60;99.90
50606;DHT22;36557;53.572;10.170;2023-07-22T20:28:07;15.60;99.90
50606;DHT22;36557;53.572;10.170;2023-07-22T20:30:33;15.60;99.90
50606;DHT22;36557;53.572;10.170;2023-07-22T20:32:59;15.50;99.90
50606;DHT22;36557;53.572;10.170;2023-07-22T20:35:24;15.50;99.90
50606;DHT22;36557;53.572;10.170;2023-07-22T20:37:50;15.50;99.90
50606;DHT22;36557;53.572;10.170;2023-07-22T20:40:16;15.50;99.90
50606;DHT22;36557;53.572;10.170;2023-07-22T20:42:43;15.50;99.90
50606;DHT22;36557;53.572;10.170;2023-07-22T20:45:09;15.50;99.90
50606;DHT22;36557;53.572;10.170;2023-07-22T20:47:35;15.50;99.90
50606;DHT22;36557;53.572;10.170;2023-07-22T20:50:01;15.50;99.90
50606;DHT22;36557;53.572;10.170;2023-07-22T20:52:27;15.60;99.90
50606;DHT22;36557;53.572;10.170;2023-07-22T20:54:53;15.60;99.90
50606;DHT22;36557;53.572;10.170;2023-07-22T20:57:19;15.60;99.90
50606;DHT22;36557;53.572;10.170;2023-07-22T20:59:49;15.50;99.90
50606;DHT22;36557;53.572;10.170;2023-07-22T21:02:18;15.40;99.90
50606;DHT22;36557;53.572;10.170;2023-07-22T21:04:43;15.40;99.90
50606;DHT22;36557;53.572;10.170;2023-07-22T21:07:12;15.40;99.90
50606;DHT22;36557;53.572;10.170;2023-07-22T21:09:39;15.40;99.90
50606;DHT22;36557;53.572;10.170;2023-07-22T21:12:06;15.40;99.90
50606;DHT22;36557;53.572;10.170;2023-07-22T21:14:32;15.40;99.90
50606;DHT22;36557;53.572;10.170;2023-07-22T21:16:58;15.40;99.90
50606;DHT22;36557;53.572;10.170;2023-07-22T21:19:24;15.50;99.90
50606;DHT22;36557;53.572;10.170;2023-07-22T21:21:50;15.50;99.90
50606;DHT22;36557;53.572;10.170;2023-07-22T21:24:15;15.50;99.90
50606;DHT22;36557;53.572;10.170;2023-07-22T21:26:41;15.50;99.90
50606;DHT22;36557;53.572;10.170;2023-07-22T21:29:07;15.50;99.90
50606;DHT22;36557;53.572;10.170;2023-07-22T21:31:33;15.40;99.90
50606;DHT22;36557;53.572;10.170;2023-07-22T21:33:59;15.30;99.90
50606;DHT22;36557;53.572;10.170;2023-07-22T21:36:26;15.30;99.90
50606;DHT22;36557;53.572;10.170;2023-07-22T21:38:52;15.40;99.90
50606;DHT22;36557;53.572;10.170;2023-07-22T21:41:19;15.30;99.90
50606;DHT22;36557;53.572;10.170;2023-07-22T21:43:44;15.30;99.90
50606;DHT22;36557;53.572;10.170;2023-07-22T21:46:10;15.30;99.90
50606;DHT22;36557;53.572;10.170;2023-07-22T21:48:36;15.30;99.90
50606;DHT22;36557;53.572;10.170;2023-07-22T21:51:02;15.30;99.90
50606;DHT22;36557;53.572;10.170;2023-07-22T21:53:29;15.20;99.90
50606;DHT22;36557;53.572;10.170;2023-07-22T21:55:56;15.20;99.90
50606;DHT22;36557;53.572;10.170;2023-07-22T21:58:22;15.30;99.90
50606;DHT22;36557;53.572;10.170;2023-07-22T22:00:48;15.30;99.90
50606;DHT22;36557;53.572;10.170;2023-07-22T22:03:14;15.20;99.90
50606;DHT22;36557;53.572;10.170;2023-07-22T22:05:40;15.30;99.90
50606;DHT22;36557;53.572;10.170;2023-07-22T22:08:06;15.30;99.90
50606;DHT22;36557;53.572;10.170;2023-07-22T22:10:32;15.20;99.90